Time,TemperatureF,DewpointF,PressureIn,WindDirection,WindDirectionDegrees,WindSpeedMPH,WindSpeedGustMPH,Humidity,HourlyPrecipIn,Conditions,Clouds,dailyrainin,SolarRadiationWatts/m^2,SoftwareType,DateUTC
2013-05-26 00:01:00,38.0,28.0,-100.00,NW,312,8.0,14.0,66,0.00,,,0.01,0.000000,,2013-05-26 06:01:00,
2013-05-26 00:32:00,38.0,27.0,-100.00,North,1,5.0,12.0,65,0.00,,,0.01,0.000000,,2013-05-26 06:32:00,
2013-05-26 00:42:00,38.0,27.0,-100.00,North,1,5.0,12.0,65,0.00,,,0.01,0.000000,,2013-05-26 06:42:00,
2013-05-26 00:52:00,38.0,27.0,-100.00,North,1,5.0,12.0,65,0.00,,,0.01,0.000000,,2013-05-26 06:52:00,
2013-05-26 01:01:00,38.0,27.0,-100.00,North,1,5.0,12.0,65,0.00,,,0.01,0.000000,,2013-05-26 07:01:00,
2013-05-26 01:32:00,38.0,27.0,-100.00,North,359,6.0,10.0,65,0.00,,,0.01,0.000000,,2013-05-26 07:32:00,
2013-05-26 01:42:00,38.0,27.0,-100.00,North,359,6.0,10.0,65,0.00,,,0.01,0.000000,,2013-05-26 07:42:00,
2013-05-26 01:52:00,38.0,27.0,-100.00,North,359,6.0,10.0,65,0.00,,,0.01,0.000000,,2013-05-26 07:52:00,
2013-05-26 02:01:00,38.0,27.0,-100.00,North,359,6.0,10.0,65,0.00,,,0.01,0.000000,,2013-05-26 08:01:00,
2013-05-26 02:32:00,38.0,27.0,-100.00,NNE,13,7.0,9.0,65,0.00,,,0.01,0.000000,,2013-05-26 08:32:00,
2013-05-26 02:42:00,38.0,27.0,-100.00,NNE,13,7.0,9.0,65,0.00,,,0.01,0.000000,,2013-05-26 08:42:00,
2013-05-26 02:53:00,38.0,27.0,-100.00,NNE,13,7.0,9.0,65,0.00,,,0.01,0.000000,,2013-05-26 08:53:00,
2013-05-26 03:01:00,38.0,27.0,-100.00,NNE,13,7.0,9.0,65,0.00,,,0.01,0.000000,,2013-05-26 09:01:00,
2013-05-26 03:34:00,37.0,27.0,-100.00,NE,40,4.0,8.0,66,0.00,,,0.01,0.000000,,2013-05-26 09:34:00,
2013-05-26 03:43:00,37.0,27.0,-100.00,NE,40,4.0,8.0,66,0.00,,,0.01,0.000000,,2013-05-26 09:43:00,
2013-05-26 03:53:00,37.0,27.0,-100.00,NE,40,4.0,8.0,66,0.00,,,0.01,0.000000,,2013-05-26 09:53:00,
2013-05-26 04:02:00,37.0,27.0,-100.00,NE,40,4.0,8.0,66,0.00,,,0.01,0.000000,,2013-05-26 10:02:00,
2013-05-26 04:33:00,37.0,28.0,-100.00,East,83,3.0,4.0,69,0.00,,,-99.99,0.000000,,2013-05-26 10:33:00,
2013-05-26 04:42:00,37.0,28.0,-100.00,East,83,3.0,4.0,69,0.00,,,-99.99,0.000000,,2013-05-26 10:42:00,
2013-05-26 04:52:00,37.0,28.0,-100.00,East,83,3.0,4.0,69,0.00,,,-99.99,0.000000,,2013-05-26 10:52:00,
2013-05-26 05:02:00,37.0,28.0,-100.00,East,83,3.0,4.0,69,0.00,,,-99.99,0.000000,,2013-05-26 11:02:00,
2013-05-26 05:32:00,37.0,27.0,-100.00,SE,138,3.0,5.0,67,0.00,,,0.01,0.000000,,2013-05-26 11:32:00,
2013-05-26 05:42:00,37.0,27.0,-100.00,SE,138,3.0,5.0,67,0.00,,,0.01,0.000000,,2013-05-26 11:42:00,
2013-05-26 05:52:00,37.0,27.0,-100.00,SE,138,3.0,5.0,67,0.00,,,0.01,0.000000,,2013-05-26 11:52:00,
2013-05-26 06:01:00,37.0,27.0,-100.00,SE,138,3.0,5.0,67,0.00,,,0.01,0.000000,,2013-05-26 12:01:00,
2013-05-26 06:32:00,37.0,28.0,-100.00,SE,137,4.0,6.0,69,0.00,,,0.01,3.000000,,2013-05-26 12:32:00,
2013-05-26 06:42:00,37.0,28.0,-100.00,SE,137,4.0,6.0,69,0.00,,,0.01,3.000000,,2013-05-26 12:42:00,
2013-05-26 06:52:00,37.0,28.0,-100.00,SE,137,4.0,6.0,69,0.00,,,0.01,3.000000,,2013-05-26 12:52:00,
2013-05-26 07:02:00,37.0,28.0,-100.00,SE,137,4.0,6.0,69,0.00,,,0.01,3.000000,,2013-05-26 13:02:00,
2013-05-26 07:32:00,39.0,29.0,-100.00,SE,125,4.0,6.0,67,0.00,,,0.01,76.000000,,2013-05-26 13:32:00,
2013-05-26 07:42:00,39.0,29.0,-100.00,SE,125,4.0,6.0,67,0.00,,,0.01,76.000000,,2013-05-26 13:42:00,
2013-05-26 07:52:00,39.0,29.0,-100.00,SE,125,4.0,6.0,67,0.00,,,0.01,76.000000,,2013-05-26 13:52:00,
2013-05-26 08:01:00,39.0,29.0,-100.00,SE,125,4.0,6.0,67,0.00,,,0.01,76.000000,,2013-05-26 14:01:00,
2013-05-26 08:32:00,41.0,31.0,-100.00,SE,133,4.0,6.0,66,0.00,,,0.01,237.000000,,2013-05-26 14:32:00,
2013-05-26 08:42:00,41.0,31.0,-100.00,SE,133,4.0,6.0,66,0.00,,,0.01,237.000000,,2013-05-26 14:42:00,
2013-05-26 08:52:00,41.0,31.0,-100.00,SE,133,4.0,6.0,66,0.00,,,0.01,237.000000,,2013-05-26 14:52:00,
2013-05-26 09:01:00,41.0,31.0,-100.00,SE,133,4.0,6.0,66,0.00,,,0.01,237.000000,,2013-05-26 15:01:00,
2013-05-26 09:33:00,44.0,33.0,-100.00,ESE,102,5.0,8.0,64,0.00,,,0.01,506.000000,,2013-05-26 15:33:00,
2013-05-26 09:43:00,44.0,33.0,-100.00,ESE,102,5.0,8.0,64,0.00,,,0.01,506.000000,,2013-05-26 15:43:00,
2013-05-26 09:53:00,44.0,33.0,-100.00,ESE,102,5.0,8.0,64,0.00,,,0.01,506.000000,,2013-05-26 15:53:00,
2013-05-26 10:03:00,44.0,33.0,-100.00,ESE,102,5.0,8.0,64,0.00,,,0.01,506.000000,,2013-05-26 16:03:00,
2013-05-26 10:33:00,47.0,34.0,-100.00,SE,131,5.0,8.0,60,0.00,,,0.01,712.000000,,2013-05-26 16:33:00,
2013-05-26 10:42:00,47.0,34.0,-100.00,SE,131,5.0,8.0,60,0.00,,,0.01,712.000000,,2013-05-26 16:42:00,
2013-05-26 10:53:00,47.0,34.0,-100.00,SE,131,5.0,8.0,60,0.00,,,0.01,712.000000,,2013-05-26 16:53:00,
2013-05-26 11:02:00,47.0,34.0,-100.00,SE,131,5.0,8.0,60,0.00,,,0.01,712.000000,,2013-05-26 17:02:00,
2013-05-26 11:32:00,49.0,35.0,-100.00,SSE,160,6.0,11.0,59,0.00,,,0.01,894.000000,,2013-05-26 17:32:00,
2013-05-26 11:42:00,49.0,35.0,-100.00,SSE,160,6.0,11.0,59,0.00,,,0.01,894.000000,,2013-05-26 17:42:00,
2013-05-26 11:52:00,49.0,35.0,-100.00,SSE,160,6.0,11.0,59,0.00,,,0.01,894.000000,,2013-05-26 17:52:00,
2013-05-26 12:01:00,49.0,35.0,-100.00,SSE,160,6.0,11.0,59,0.00,,,0.01,894.000000,,2013-05-26 18:01:00,
2013-05-26 12:32:00,51.0,34.0,-100.00,SSE,153,6.0,14.0,53,0.00,,,0.01,1050.000000,,2013-05-26 18:32:00,
2013-05-26 12:42:00,51.0,34.0,-100.00,SSE,153,6.0,14.0,53,0.00,,,0.01,1050.000000,,2013-05-26 18:42:00,
2013-05-26 12:52:00,51.0,34.0,-100.00,SSE,153,6.0,14.0,53,0.00,,,0.01,1050.000000,,2013-05-26 18:52:00,
2013-05-26 13:01:00,51.0,34.0,-100.00,SSE,153,6.0,14.0,53,0.00,,,0.01,1050.000000,,2013-05-26 19:01:00,
2013-05-26 13:32:00,48.0,32.0,-100.00,South,188,8.0,13.0,53,0.00,,,0.01,362.000000,,2013-05-26 19:32:00,
2013-05-26 13:42:00,48.0,32.0,-100.00,South,188,8.0,13.0,53,0.00,,,0.01,362.000000,,2013-05-26 19:42:00,
2013-05-26 13:52:00,48.0,32.0,-100.00,South,188,8.0,13.0,53,0.00,,,0.01,362.000000,,2013-05-26 19:52:00,
2013-05-26 14:01:00,48.0,32.0,-100.00,South,188,8.0,13.0,53,0.00,,,0.01,362.000000,,2013-05-26 20:01:00,
2013-05-26 14:32:00,54.0,36.0,-100.00,East,91,5.0,19.0,50,0.00,,,0.01,957.000000,,2013-05-26 20:32:00,
2013-05-26 14:42:00,54.0,36.0,-100.00,East,91,5.0,19.0,50,0.00,,,0.01,957.000000,,2013-05-26 20:42:00,
2013-05-26 14:52:00,54.0,36.0,-100.00,East,91,5.0,19.0,50,0.00,,,0.01,957.000000,,2013-05-26 20:52:00,
2013-05-26 15:01:00,54.0,36.0,-100.00,East,91,5.0,19.0,50,0.00,,,0.01,957.000000,,2013-05-26 21:01:00,
2013-05-26 15:33:00,46.0,30.0,-100.00,West,275,14.0,23.0,53,0.00,,,0.01,575.000000,,2013-05-26 21:33:00,
2013-05-26 15:43:00,46.0,30.0,-100.00,West,275,14.0,23.0,53,0.00,,,0.01,575.000000,,2013-05-26 21:43:00,
2013-05-26 15:53:00,46.0,30.0,-100.00,West,275,14.0,23.0,53,0.00,,,0.01,575.000000,,2013-05-26 21:53:00,
2013-05-26 16:02:00,46.0,30.0,-100.00,West,275,14.0,23.0,53,0.00,,,0.01,575.000000,,2013-05-26 22:02:00,
2013-05-26 16:33:00,37.0,33.0,-100.00,SW,224,14.0,28.0,86,0.02,,,0.02,38.000000,,2013-05-26 22:33:00,
2013-05-26 17:32:00,37.0,35.0,-100.00,East,96,7.0,20.0,94,0.09,,,0.11,35.000000,,2013-05-26 23:32:00,
2013-05-26 17:43:00,37.0,35.0,-100.00,East,96,7.0,20.0,94,0.09,,,0.11,35.000000,,2013-05-26 23:43:00,
2013-05-26 17:52:00,37.0,35.0,-100.00,East,96,7.0,20.0,94,0.09,,,0.11,35.000000,,2013-05-26 23:52:00,
2013-05-26 18:02:00,37.0,35.0,-100.00,East,96,7.0,20.0,94,0.09,,,0.11,35.000000,,2013-05-27 00:02:00,
2013-05-26 18:32:00,38.0,34.0,-100.00,ESE,121,10.0,13.0,87,0.00,,,0.11,248.000000,,2013-05-27 00:32:00,
2013-05-26 18:42:00,38.0,34.0,-100.00,ESE,121,10.0,13.0,87,0.00,,,0.11,248.000000,,2013-05-27 00:42:00,
2013-05-26 18:52:00,38.0,34.0,-100.00,ESE,121,10.0,13.0,87,0.00,,,0.11,248.000000,,2013-05-27 00:52:00,
2013-05-26 19:01:00,38.0,34.0,-100.00,ESE,121,10.0,13.0,87,0.00,,,0.11,248.000000,,2013-05-27 01:01:00,
2013-05-26 19:32:00,38.0,36.0,-100.00,SE,143,5.0,13.0,91,0.00,,,0.11,200.000000,,2013-05-27 01:32:00,
2013-05-26 19:42:00,38.0,36.0,-100.00,SE,143,5.0,13.0,91,0.00,,,0.11,200.000000,,2013-05-27 01:42:00,
2013-05-26 19:52:00,38.0,36.0,-100.00,SE,143,5.0,13.0,91,0.00,,,0.11,200.000000,,2013-05-27 01:52:00,
2013-05-26 20:01:00,38.0,36.0,-100.00,SE,143,5.0,13.0,91,0.00,,,0.11,200.000000,,2013-05-27 02:01:00,
2013-05-26 20:32:00,40.0,34.0,-100.00,SE,142,4.0,9.0,80,0.00,,,0.11,213.000000,,2013-05-27 02:32:00,
2013-05-26 20:42:00,40.0,34.0,-100.00,SE,142,4.0,9.0,80,0.00,,,0.11,213.000000,,2013-05-27 02:42:00,
2013-05-26 20:52:00,40.0,34.0,-100.00,SE,142,4.0,9.0,80,0.00,,,0.11,213.000000,,2013-05-27 02:52:00,
2013-05-26 21:02:00,40.0,34.0,-100.00,SE,142,4.0,9.0,80,0.00,,,0.11,213.000000,,2013-05-27 03:02:00,
2013-05-26 21:33:00,37.0,32.0,-100.00,West,271,13.0,20.0,82,0.01,,,0.12,29.000000,,2013-05-27 03:33:00,
2013-05-26 21:43:00,37.0,32.0,-100.00,West,271,13.0,20.0,82,0.01,,,0.12,29.000000,,2013-05-27 03:43:00,
2013-05-26 21:53:00,37.0,32.0,-100.00,West,271,13.0,20.0,82,0.01,,,0.12,29.000000,,2013-05-27 03:53:00,
2013-05-26 22:02:00,37.0,32.0,-100.00,West,271,13.0,20.0,82,0.01,,,0.12,29.000000,,2013-05-27 04:02:00,
2013-05-26 22:33:00,36.0,35.0,-100.00,WNW,282,10.0,18.0,95,0.08,,,0.20,0.000000,,2013-05-27 04:33:00,
2013-05-26 22:43:00,36.0,35.0,-100.00,WNW,282,10.0,18.0,95,0.08,,,0.20,0.000000,,2013-05-27 04:43:00,
2013-05-26 22:52:00,36.0,35.0,-100.00,WNW,282,10.0,18.0,95,0.08,,,0.20,0.000000,,2013-05-27 04:52:00,
2013-05-26 23:02:00,36.0,35.0,-100.00,WNW,282,10.0,18.0,95,0.08,,,0.20,0.000000,,2013-05-27 05:02:00,
2013-05-26 23:32:00,36.0,35.0,-100.00,WSW,257,3.0,12.0,95,0.01,,,0.21,0.000000,,2013-05-27 05:32:00,
2013-05-26 23:42:00,36.0,35.0,-100.00,WSW,257,3.0,12.0,95,0.01,,,0.21,0.000000,,2013-05-27 05:42:00,
2013-05-26 23:52:00,36.0,35.0,-100.00,WSW,257,3.0,12.0,95,0.01,,,0.21,0.000000,,2013-05-27 05:52:00,